Time;durP1;ratioP1;P1;durP2;ratioP2;P2;SDS_P1;SDS_P2;PMS_P1;PMS_P2;Temp;Humidity;BMP_temperature;BMP_pressure;BME280_temperature;BME280_humidity;BME280_pressure;Samples;Min_cycle;Max_cycle;Signal;HPM_P1;HPM_P2
2019/12/23 00:01:59;;;;;;;1.20;1.10;;;;;;;19.77;43.99;98821.22;;;;-52
2019/12/23 00:04:59;;;;;;;1.37;1.13;;;;;;;19.76;43.94;98823.78;;;;-51
2019/12/23 00:07:59;;;;;;;1.35;1.19;;;;;;;19.74;43.90;98830.37;;;;-52
2019/12/23 00:10:59;;;;;;;1.33;1.23;;;;;;;19.73;43.94;98837.89;;;;-52
2019/12/23 00:13:58;;;;;;;1.22;1.12;;;;;;;19.71;43.98;98836.66;;;;-52
2019/12/23 00:16:59;;;;;;;2.09;1.10;;;;;;;19.70;43.96;98848.20;;;;-52
2019/12/23 00:19:59;;;;;;;1.97;1.10;;;;;;;19.69;43.98;98852.63;;;;-52
2019/12/23 00:22:59;;;;;;;1.58;1.26;;;;;;;19.68;43.97;98857.14;;;;-51
2019/12/23 00:25:59;;;;;;;1.21;1.10;;;;;;;19.68;43.95;98856.70;;;;-52
2019/12/23 00:28:59;;;;;;;1.30;1.20;;;;;;;19.65;43.98;98865.55;;;;-52
2019/12/23 00:31:59;;;;;;;2.57;1.20;;;;;;;19.65;44.04;98866.39;;;;-52
2019/12/23 00:34:59;;;;;;;1.10;1.00;;;;;;;19.63;43.99;98874.66;;;;-52
2019/12/23 00:37:59;;;;;;;1.20;1.10;;;;;;;19.62;44.00;98877.05;;;;-52
2019/12/23 00:40:58;;;;;;;1.21;1.11;;;;;;;19.62;43.99;98885.09;;;;-52
2019/12/23 00:43:59;;;;;;;1.55;1.09;;;;;;;19.60;44.04;98891.52;;;;-51
2019/12/23 00:46:59;;;;;;;1.16;1.05;;;;;;;19.59;44.03;98894.84;;;;-50
2019/12/23 00:49:59;;;;;;;1.05;1.01;;;;;;;19.58;44.02;98899.17;;;;-52
2019/12/23 00:52:58;;;;;;;1.22;1.13;;;;;;;19.57;44.08;98899.56;;;;-52
2019/12/23 00:55:59;;;;;;;1.08;1.02;;;;;;;19.56;44.05;98909.86;;;;-52
2019/12/23 00:58:59;;;;;;;0.95;0.95;;;;;;;19.55;44.07;98915.94;;;;-52
2019/12/23 01:01:59;;;;;;;1.20;1.10;;;;;;;19.54;44.11;98925.05;;;;-50
2019/12/23 01:04:59;;;;;;;1.11;1.01;;;;;;;19.54;44.13;98937.62;;;;-52
2019/12/23 01:07:59;;;;;;;1.20;1.10;;;;;;;19.52;44.10;98945.11;;;;-52
2019/12/23 01:10:59;;;;;;;1.27;1.12;;;;;;;19.50;44.11;98953.10;;;;-52
2019/12/23 01:13:58;;;;;;;1.15;1.09;;;;;;;19.50;44.06;98956.39;;;;-52
2019/12/23 01:16:58;;;;;;;1.23;1.03;;;;;;;19.49;44.09;98965.58;;;;-52
2019/12/23 01:19:58;;;;;;;1.01;0.93;;;;;;;19.49;44.10;98972.91;;;;-51
2019/12/23 01:22:59;;;;;;;2.05;1.03;;;;;;;19.48;44.06;98969.98;;;;-52
2019/12/23 01:25:59;;;;;;;1.23;1.06;;;;;;;19.46;44.14;98975.55;;;;-52
2019/12/23 01:28:59;;;;;;;1.62;1.16;;;;;;;19.46;44.15;98996.63;;;;-52
2019/12/23 01:31:59;;;;;;;1.17;1.07;;;;;;;19.45;44.16;99003.47;;;;-52
2019/12/23 01:34:58;;;;;;;1.18;1.01;;;;;;;19.43;44.11;99001.87;;;;-52
2019/12/23 01:37:59;;;;;;;1.28;1.17;;;;;;;19.42;44.15;99010.73;;;;-51
2019/12/23 01:40:59;;;;;;;1.12;1.05;;;;;;;19.41;44.09;99006.92;;;;-52
2019/12/23 01:43:59;;;;;;;1.10;1.00;;;;;;;19.41;44.15;99015.80;;;;-52
2019/12/23 01:46:59;;;;;;;1.10;1.00;;;;;;;19.40;44.13;99020.10;;;;-52
2019/12/23 01:49:59;;;;;;;1.11;1.01;;;;;;;19.38;44.12;99026.20;;;;-52
2019/12/23 01:52:59;;;;;;;1.31;1.10;;;;;;;19.39;44.09;99038.16;;;;-52
2019/12/23 01:55:58;;;;;;;1.15;1.05;;;;;;;19.38;44.15;99048.34;;;;-50
2019/12/23 01:58:58;;;;;;;1.08;1.01;;;;;;;19.36;44.13;99046.56;;;;-52
2019/12/23 02:01:59;;;;;;;1.01;0.97;;;;;;;19.36;44.15;99051.98;;;;-52
2019/12/23 02:04:59;;;;;;;0.97;0.96;;;;;;;19.35;44.08;99049.31;;;;-50
2019/12/23 02:07:59;;;;;;;1.05;1.00;;;;;;;19.32;44.16;99050.84;;;;-50
2019/12/23 02:10:59;;;;;;;1.13;1.01;;;;;;;19.33;44.17;99059.48;;;;-52
2019/12/23 02:13:59;;;;;;;1.27;1.11;;;;;;;19.32;44.10;99066.55;;;;-52
2019/12/23 02:16:59;;;;;;;1.17;1.11;;;;;;;19.31;44.14;99075.27;;;;-50
2019/12/23 02:19:58;;;;;;;1.17;1.08;;;;;;;19.30;44.21;99076.89;;;;-52
2019/12/23 02:22:59;;;;;;;1.08;0.99;;;;;;;19.29;44.18;99083.66;;;;-52
2019/12/23 02:25:59;;;;;;;1.12;1.09;;;;;;;19.29;44.15;99089.58;;;;-50
2019/12/23 02:28:59;;;;;;;1.20;1.10;;;;;;;19.28;44.22;99096.70;;;;-52
2019/12/23 02:31:59;;;;;;;1.02;1.00;;;;;;;19.28;44.19;99099.88;;;;-52
2019/12/23 02:34:59;;;;;;;1.33;1.07;;;;;;;19.26;44.20;99106.69;;;;-51
2019/12/23 02:37:59;;;;;;;1.06;0.99;;;;;;;19.26;44.20;99109.30;;;;-52
2019/12/23 02:40:59;;;;;;;1.61;1.22;;;;;;;19.24;44.19;99114.09;;;;-52
2019/12/23 02:43:59;;;;;;;1.00;0.95;;;;;;;19.23;44.19;99121.94;;;;-52
2019/12/23 02:46:59;;;;;;;1.02;1.01;;;;;;;19.24;44.25;99128.73;;;;-52
2019/12/23 02:49:59;;;;;;;1.12;1.03;;;;;;;19.22;44.20;99130.63;;;;-52
2019/12/23 02:52:59;;;;;;;1.11;1.00;;;;;;;19.22;44.25;99134.47;;;;-50
2019/12/23 02:55:59;;;;;;;1.20;1.10;;;;;;;19.21;44.20;99144.56;;;;-52
2019/12/23 02:58:59;;;;;;;0.89;0.89;;;;;;;19.20;44.22;99146.54;;;;-52
2019/12/23 03:01:58;;;;;;;1.09;1.00;;;;;;;19.19;44.16;99148.05;;;;-51
2019/12/23 03:04:59;;;;;;;1.19;1.09;;;;;;;19.19;44.19;99149.56;;;;-51
2019/12/23 03:07:59;;;;;;;0.97;0.95;;;;;;;19.19;44.19;99155.05;;;;-50
2019/12/23 03:10:59;;;;;;;1.27;1.07;;;;;;;19.18;44.21;99155.94;;;;-52
2019/12/23 03:13:59;;;;;;;1.37;1.07;;;;;;;19.18;44.23;99159.45;;;;-52
2019/12/23 03:16:59;;;;;;;1.18;1.08;;;;;;;19.16;44.26;99156.75;;;;-52
2019/12/23 03:19:58;;;;;;;1.20;1.10;;;;;;;19.16;44.24;99156.08;;;;-50
2019/12/23 03:22:59;;;;;;;0.99;0.95;;;;;;;19.15;44.24;99160.91;;;;-52
2019/12/23 03:25:59;;;;;;;1.75;1.01;;;;;;;19.15;44.27;99174.30;;;;-52
2019/12/23 03:28:59;;;;;;;1.20;1.10;;;;;;;19.14;44.20;99176.45;;;;-52
2019/12/23 03:31:58;;;;;;;1.02;1.01;;;;;;;19.13;44.23;99180.38;;;;-51
2019/12/23 03:34:59;;;;;;;0.92;0.90;;;;;;;19.13;44.25;99183.05;;;;-52
2019/12/23 03:37:59;;;;;;;1.16;1.10;;;;;;;19.11;44.23;99185.14;;;;-52
2019/12/23 03:40:59;;;;;;;1.00;0.99;;;;;;;19.11;44.21;99191.90;;;;-52
2019/12/23 03:43:59;;;;;;;1.14;1.00;;;;;;;19.10;44.24;99191.03;;;;-52
2019/12/23 03:46:59;;;;;;;1.17;1.05;;;;;;;19.09;44.24;99193.92;;;;-52
2019/12/23 03:49:59;;;;;;;1.27;1.09;;;;;;;19.09;44.24;99194.45;;;;-51
2019/12/23 03:52:59;;;;;;;0.94;0.91;;;;;;;19.08;44.30;99205.05;;;;-52
2019/12/23 03:55:59;;;;;;;1.17;1.07;;;;;;;19.09;44.29;99206.58;;;;-52
2019/12/23 03:58:58;;;;;;;1.11;1.05;;;;;;;19.07;44.26;99206.36;;;;-51
2019/12/23 04:01:59;;;;;;;1.17;1.10;;;;;;;19.08;44.19;99215.75;;;;-52
2019/12/23 04:04:59;;;;;;;0.99;0.98;;;;;;;19.08;44.26;99218.33;;;;-52
2019/12/23 04:07:59;;;;;;;1.03;0.96;;;;;;;19.08;44.24;99220.03;;;;-51
2019/12/23 04:10:59;;;;;;;1.13;1.07;;;;;;;19.09;44.26;99224.08;;;;-52
2019/12/23 04:13:59;;;;;;;0.90;0.90;;;;;;;19.11;44.25;99227.20;;;;-50
2019/12/23 04:16:59;;;;;;;1.00;1.00;;;;;;;19.12;44.19;99222.22;;;;-51
2019/12/23 04:19:58;;;;;;;1.18;1.08;;;;;;;19.15;44.25;99229.32;;;;-51
2019/12/23 04:22:58;;;;;;;1.24;1.14;;;;;;;19.17;44.27;99234.06;;;;-51
2019/12/23 04:25:59;;;;;;;1.13;1.05;;;;;;;19.19;44.28;99232.20;;;;-51
2019/12/23 04:28:59;;;;;;;0.92;0.92;;;;;;;19.21;44.33;99237.11;;;;-50
2019/12/23 04:31:59;;;;;;;0.95;0.94;;;;;;;19.25;44.25;99241.33;;;;-51
2019/12/23 04:34:59;;;;;;;0.93;0.93;;;;;;;19.28;44.33;99247.09;;;;-51
2019/12/23 04:37:59;;;;;;;1.67;1.07;;;;;;;19.33;44.40;99254.66;;;;-51
2019/12/23 04:40:58;;;;;;;1.13;1.01;;;;;;;19.37;44.42;99258.41;;;;-50
2019/12/23 04:43:59;;;;;;;0.85;0.85;;;;;;;19.39;44.45;99259.59;;;;-51
2019/12/23 04:46:59;;;;;;;0.94;0.94;;;;;;;19.43;44.42;99263.59;;;;-50
2019/12/23 04:49:59;;;;;;;1.11;1.07;;;;;;;19.47;44.44;99262.61;;;;-50
2019/12/23 04:52:59;;;;;;;0.90;0.90;;;;;;;19.51;44.46;99267.57;;;;-51
2019/12/23 04:55:59;;;;;;;0.93;0.93;;;;;;;19.54;44.58;99274.17;;;;-51
2019/12/23 04:58:59;;;;;;;1.20;1.10;;;;;;;19.57;44.47;99277.77;;;;-51
2019/12/23 05:01:58;;;;;;;1.09;1.00;;;;;;;19.61;44.53;99290.84;;;;-50
2019/12/23 05:04:59;;;;;;;0.83;0.83;;;;;;;19.64;44.57;99295.10;;;;-50
2019/12/23 05:07:59;;;;;;;0.89;0.89;;;;;;;19.66;44.56;99291.03;;;;-51
2019/12/23 05:10:58;;;;;;;1.11;0.97;;;;;;;19.69;44.58;99295.89;;;;-50
2019/12/23 05:13:59;;;;;;;0.90;0.90;;;;;;;19.73;44.58;99299.14;;;;-50
2019/12/23 05:16:58;;;;;;;1.13;1.04;;;;;;;19.75;44.56;99305.75;;;;-50
2019/12/23 05:19:59;;;;;;;0.90;0.90;;;;;;;19.77;44.57;99308.48;;;;-51
2019/12/23 05:22:59;;;;;;;0.91;0.91;;;;;;;19.80;44.51;99313.75;;;;-50
2019/12/23 05:25:59;;;;;;;1.05;1.00;;;;;;;19.82;44.53;99314.70;;;;-50
2019/12/23 05:28:59;;;;;;;1.13;0.99;;;;;;;19.84;44.55;99321.63;;;;-50
2019/12/23 05:31:58;;;;;;;1.05;1.05;;;;;;;19.86;44.51;99322.69;;;;-50
2019/12/23 05:34:59;;;;;;;1.08;1.00;;;;;;;19.87;44.47;99325.79;;;;-50
2019/12/23 05:37:59;;;;;;;1.15;1.05;;;;;;;19.89;44.50;99327.18;;;;-50
2019/12/23 05:40:59;;;;;;;1.02;0.97;;;;;;;19.89;44.42;99331.13;;;;-50
2019/12/23 05:43:58;;;;;;;1.08;1.00;;;;;;;19.91;44.42;99338.89;;;;-50
2019/12/23 05:46:58;;;;;;;0.80;0.80;;;;;;;19.92;44.42;99342.57;;;;-50
2019/12/23 05:49:59;;;;;;;1.12;1.02;;;;;;;19.92;44.33;99349.13;;;;-50
2019/12/23 05:52:59;;;;;;;1.13;1.00;;;;;;;19.94;44.32;99355.69;;;;-50
2019/12/23 05:55:59;;;;;;;0.92;0.92;;;;;;;19.94;44.34;99361.39;;;;-50
2019/12/23 05:58:59;;;;;;;1.17;1.07;;;;;;;19.96;44.32;99367.47;;;;-50
2019/12/23 06:01:59;;;;;;;0.90;0.90;;;;;;;19.95;44.32;99368.11;;;;-50
2019/12/23 06:04:59;;;;;;;1.00;0.93;;;;;;;19.95;44.27;99371.50;;;;-50
2019/12/23 06:07:59;;;;;;;0.92;0.92;;;;;;;19.95;44.23;99378.87;;;;-50
2019/12/23 06:10:58;;;;;;;1.03;1.00;;;;;;;19.96;44.18;99379.47;;;;-50
2019/12/23 06:13:58;;;;;;;0.90;0.90;;;;;;;19.96;44.15;99383.22;;;;-50
2019/12/23 06:16:59;;;;;;;1.04;0.98;;;;;;;19.96;44.15;99385.70;;;;-50
2019/12/23 06:19:58;;;;;;;1.09;1.00;;;;;;;19.96;44.18;99387.88;;;;-50
2019/12/23 06:22:58;;;;;;;1.07;1.03;;;;;;;19.97;44.11;99393.00;;;;-47
2019/12/23 06:25:59;;;;;;;0.95;0.95;;;;;;;19.97;44.18;99401.95;;;;-47
2019/12/23 06:28:58;;;;;;;1.15;1.05;;;;;;;19.96;44.15;99404.30;;;;-46
2019/12/23 06:31:58;;;;;;;0.99;0.94;;;;;;;19.98;44.08;99410.59;;;;-47
2019/12/23 06:34:58;;;;;;;0.97;0.97;;;;;;;19.97;44.07;99412.70;;;;-47
2019/12/23 06:37:58;;;;;;;0.93;0.90;;;;;;;19.97;44.08;99416.39;;;;-47
2019/12/23 06:40:58;;;;;;;1.05;1.04;;;;;;;19.99;44.10;99426.56;;;;-47
2019/12/23 06:43:59;;;;;;;1.14;1.04;;;;;;;19.98;44.04;99429.92;;;;-47
2019/12/23 06:46:59;;;;;;;1.11;1.00;;;;;;;19.99;44.00;99429.11;;;;-47
2019/12/23 06:49:58;;;;;;;1.07;0.95;;;;;;;20.00;44.00;99437.08;;;;-47
2019/12/23 06:52:58;;;;;;;0.89;0.89;;;;;;;20.01;44.04;99438.18;;;;-47
2019/12/23 06:55:58;;;;;;;0.90;0.90;;;;;;;20.01;44.04;99445.92;;;;-47
2019/12/23 06:58:58;;;;;;;0.75;0.75;;;;;;;20.02;44.00;99449.12;;;;-47
2019/12/23 07:01:59;;;;;;;0.96;0.91;;;;;;;20.03;43.98;99456.19;;;;-47
2019/12/23 07:04:58;;;;;;;1.03;1.02;;;;;;;20.04;44.00;99460.37;;;;-47
2019/12/23 07:07:58;;;;;;;0.90;0.90;;;;;;;20.04;43.97;99464.59;;;;-47
2019/12/23 07:10:58;;;;;;;0.90;0.90;;;;;;;20.05;43.99;99467.87;;;;-47
2019/12/23 07:13:59;;;;;;;0.90;0.90;;;;;;;20.07;43.98;99474.06;;;;-47
2019/12/23 07:16:59;;;;;;;1.00;0.90;;;;;;;20.07;44.00;99479.00;;;;-47
2019/12/23 07:19:59;;;;;;;0.92;0.92;;;;;;;20.07;43.96;99491.39;;;;-46
2019/12/23 07:22:59;;;;;;;0.90;0.90;;;;;;;20.08;43.96;99500.80;;;;-47
2019/12/23 07:25:58;;;;;;;0.90;0.90;;;;;;;20.08;43.96;99507.91;;;;-47
2019/12/23 07:28:58;;;;;;;1.00;1.00;;;;;;;20.10;43.97;99512.77;;;;-46
2019/12/23 07:31:59;;;;;;;0.95;0.95;;;;;;;20.11;43.89;99518.39;;;;-47
2019/12/23 07:34:58;;;;;;;0.79;0.79;;;;;;;20.12;43.92;99521.77;;;;-47
2019/12/23 07:37:59;;;;;;;1.01;1.01;;;;;;;20.12;43.90;99526.96;;;;-47
2019/12/23 07:40:58;;;;;;;1.03;1.00;;;;;;;20.13;43.92;99532.69;;;;-47
2019/12/23 07:43:58;;;;;;;0.87;0.87;;;;;;;20.14;43.94;99543.11;;;;-47
2019/12/23 07:46:59;;;;;;;0.89;0.89;;;;;;;20.14;43.94;99546.56;;;;-47
2019/12/23 07:49:59;;;;;;;1.08;1.01;;;;;;;20.15;43.85;99554.20;;;;-47
2019/12/23 07:52:59;;;;;;;0.90;0.90;;;;;;;20.15;43.89;99561.08;;;;-47
2019/12/23 07:55:58;;;;;;;0.81;0.81;;;;;;;20.16;43.88;99568.73;;;;-47
2019/12/23 07:58:58;;;;;;;0.91;0.91;;;;;;;20.17;43.84;99574.44;;;;-47
2019/12/23 08:01:58;;;;;;;0.91;0.91;;;;;;;20.16;43.86;99577.13;;;;-47
2019/12/23 08:04:58;;;;;;;1.10;1.00;;;;;;;20.17;43.86;99580.41;;;;-47
2019/12/23 08:07:58;;;;;;;0.90;0.90;;;;;;;20.18;43.89;99584.63;;;;-47
2019/12/23 08:10:58;;;;;;;0.80;0.80;;;;;;;20.18;43.83;99588.72;;;;-47
2019/12/23 08:13:58;;;;;;;0.88;0.88;;;;;;;20.18;43.87;99593.94;;;;-47
2019/12/23 08:16:58;;;;;;;0.80;0.80;;;;;;;20.18;43.83;99598.30;;;;-47
2019/12/23 08:19:58;;;;;;;0.92;0.91;;;;;;;20.19;43.86;99605.20;;;;-47
2019/12/23 08:22:58;;;;;;;0.84;0.84;;;;;;;20.21;43.87;99611.09;;;;-47
2019/12/23 08:25:58;;;;;;;1.52;0.99;;;;;;;20.21;43.84;99627.86;;;;-47
2019/12/23 08:28:59;;;;;;;1.01;1.01;;;;;;;20.21;43.80;99632.89;;;;-47
2019/12/23 08:31:59;;;;;;;0.83;0.83;;;;;;;20.21;43.85;99635.34;;;;-47
2019/12/23 08:34:58;;;;;;;0.90;0.90;;;;;;;20.22;43.80;99641.80;;;;-47
2019/12/23 08:37:58;;;;;;;0.83;0.83;;;;;;;20.22;43.80;99645.49;;;;-46
2019/12/23 08:40:59;;;;;;;0.93;0.93;;;;;;;20.22;43.81;99650.22;;;;-47
2019/12/23 08:43:58;;;;;;;0.91;0.91;;;;;;;20.22;43.80;99658.44;;;;-47
2019/12/23 08:46:58;;;;;;;0.80;0.80;;;;;;;20.22;43.77;99661.62;;;;-47
2019/12/23 08:49:59;;;;;;;0.74;0.74;;;;;;;20.23;43.77;99668.76;;;;-47
2019/12/23 08:52:58;;;;;;;0.95;0.95;;;;;;;20.23;43.81;99670.50;;;;-47
2019/12/23 08:55:59;;;;;;;0.97;0.97;;;;;;;20.25;43.78;99683.38;;;;-47
2019/12/23 08:58:58;;;;;;;1.01;1.00;;;;;;;20.25;43.72;99685.88;;;;-47
2019/12/23 09:01:58;;;;;;;0.84;0.84;;;;;;;20.24;43.76;99685.31;;;;-47
2019/12/23 09:04:59;;;;;;;0.81;0.81;;;;;;;20.25;43.72;99693.03;;;;-47
2019/12/23 09:07:58;;;;;;;0.79;0.79;;;;;;;20.24;43.76;99701.75;;;;-47
2019/12/23 09:10:58;;;;;;;0.84;0.84;;;;;;;20.24;43.77;99706.51;;;;-47
2019/12/23 09:13:58;;;;;;;0.81;0.81;;;;;;;20.24;43.78;99717.50;;;;-47
2019/12/23 09:16:58;;;;;;;0.77;0.76;;;;;;;20.23;43.74;99713.02;;;;-46
2019/12/23 09:19:58;;;;;;;0.89;0.83;;;;;;;20.24;43.71;99723.08;;;;-47
2019/12/23 09:22:58;;;;;;;0.89;0.89;;;;;;;20.23;43.73;99731.19;;;;-47
2019/12/23 09:25:59;;;;;;;0.91;0.91;;;;;;;20.24;43.70;99738.87;;;;-47
2019/12/23 09:28:58;;;;;;;0.81;0.81;;;;;;;20.23;43.71;99741.52;;;;-57
2019/12/23 09:31:59;;;;;;;0.86;0.86;;;;;;;20.23;43.74;99751.08;;;;-56
2019/12/23 09:34:58;;;;;;;0.80;0.80;;;;;;;20.22;43.70;99755.23;;;;-58
2019/12/23 09:37:58;;;;;;;3.25;1.05;;;;;;;20.26;43.86;99760.79;;;;-58
2019/12/23 09:40:58;;;;;;;3.68;1.30;;;;;;;20.27;44.04;99767.59;;;;-55
2019/12/23 09:43:58;;;;;;;2.56;1.13;;;;;;;20.29;44.52;99769.84;;;;-59
2019/12/23 09:46:58;;;;;;;8.35;1.31;;;;;;;20.33;44.88;99774.92;;;;-59
2019/12/23 09:49:58;;;;;;;6.60;1.22;;;;;;;20.34;44.94;99775.28;;;;-54
2019/12/23 09:52:58;;;;;;;3.07;1.16;;;;;;;20.35;45.20;99775.58;;;;-61
2019/12/23 09:55:58;;;;;;;5.32;1.23;;;;;;;20.33;44.67;99785.59;;;;-58
2019/12/23 09:58:58;;;;;;;6.53;1.32;;;;;;;20.34;44.70;99789.80;;;;-53
2019/12/23 10:01:58;;;;;;;4.81;1.23;;;;;;;20.34;44.81;99796.92;;;;-50
2019/12/23 10:04:58;;;;;;;3.66;1.14;;;;;;;20.34;44.70;99804.47;;;;-51
2019/12/23 10:07:58;;;;;;;1.74;1.10;;;;;;;20.35;44.59;99806.94;;;;-51
2019/12/23 10:10:58;;;;;;;3.53;1.32;;;;;;;20.36;44.39;99809.32;;;;-51
2019/12/23 10:13:58;;;;;;;2.59;1.14;;;;;;;20.35;44.22;99815.56;;;;-51
2019/12/23 10:16:58;;;;;;;1.73;1.04;;;;;;;20.35;44.17;99816.00;;;;-52
2019/12/23 10:19:58;;;;;;;2.11;1.13;;;;;;;20.35;44.19;99816.41;;;;-51
2019/12/23 10:22:59;;;;;;;3.00;1.20;;;;;;;20.34;44.11;99812.68;;;;-51
2019/12/23 10:25:59;;;;;;;2.93;1.19;;;;;;;20.35;44.08;99814.72;;;;-51
2019/12/23 10:28:58;;;;;;;1.51;1.09;;;;;;;20.35;44.06;99816.33;;;;-51
2019/12/23 10:31:59;;;;;;;2.09;1.05;;;;;;;20.34;44.02;99816.30;;;;-51
2019/12/23 10:34:58;;;;;;;2.73;1.01;;;;;;;20.35;44.01;99811.97;;;;-51
2019/12/23 10:37:58;;;;;;;1.79;1.07;;;;;;;20.35;43.96;99810.36;;;;-51
2019/12/23 10:40:58;;;;;;;1.46;1.05;;;;;;;20.35;43.94;99812.20;;;;-51
2019/12/23 10:43:58;;;;;;;2.61;1.00;;;;;;;20.35;43.94;99815.49;;;;-50
2019/12/23 10:46:59;;;;;;;1.57;1.09;;;;;;;20.35;43.92;99819.02;;;;-51
2019/12/23 10:49:59;;;;;;;2.23;1.13;;;;;;;20.35;43.88;99818.24;;;;-51
2019/12/23 10:52:59;;;;;;;2.14;1.01;;;;;;;20.35;43.88;99818.91;;;;-51
2019/12/23 10:55:58;;;;;;;1.19;0.97;;;;;;;20.35;43.86;99819.19;;;;-51
2019/12/23 10:58:58;;;;;;;1.41;1.13;;;;;;;20.36;43.80;99820.56;;;;-51
2019/12/23 11:01:58;;;;;;;1.26;1.07;;;;;;;20.36;43.84;99820.28;;;;-51
2019/12/23 11:04:58;;;;;;;1.15;1.01;;;;;;;20.37;43.81;99824.61;;;;-51
2019/12/23 11:07:58;;;;;;;1.17;1.10;;;;;;;20.37;43.79;99826.19;;;;-51
2019/12/23 11:10:58;;;;;;;1.20;1.00;;;;;;;20.36;43.84;99827.27;;;;-51
2019/12/23 11:13:58;;;;;;;1.90;1.13;;;;;;;20.37;43.87;99838.36;;;;-51
2019/12/23 11:16:58;;;;;;;1.57;1.04;;;;;;;20.37;43.80;99834.23;;;;-51
2019/12/23 11:19:58;;;;;;;1.17;1.07;;;;;;;20.37;43.78;99836.25;;;;-51
2019/12/23 11:22:58;;;;;;;1.98;1.20;;;;;;;20.38;43.79;99840.30;;;;-50
2019/12/23 11:25:58;;;;;;;1.15;1.02;;;;;;;20.39;43.77;99838.16;;;;-51
2019/12/23 11:28:58;;;;;;;1.93;1.00;;;;;;;20.40;43.77;99842.31;;;;-51
2019/12/23 11:31:58;;;;;;;1.43;1.13;;;;;;;20.42;43.74;99839.48;;;;-51
2019/12/23 11:34:58;;;;;;;1.72;1.00;;;;;;;20.42;43.94;99838.48;;;;-51
2019/12/23 11:37:59;;;;;;;2.57;1.42;;;;;;;20.38;43.32;99841.31;;;;-50
2019/12/23 11:40:58;;;;;;;2.73;1.28;;;;;;;20.39;43.07;99838.16;;;;-54
2019/12/23 11:43:58;;;;;;;2.43;1.28;;;;;;;20.40;43.24;99844.66;;;;-54
2019/12/23 11:46:58;;;;;;;1.22;1.10;;;;;;;20.43;43.46;99853.38;;;;-54
2019/12/23 11:49:58;;;;;;;3.37;1.11;;;;;;;20.43;43.51;99856.99;;;;-55
2019/12/23 11:52:59;;;;;;;1.51;1.09;;;;;;;20.44;43.48;99856.09;;;;-54
2019/12/23 11:55:58;;;;;;;1.43;1.15;;;;;;;20.45;43.50;99862.16;;;;-54
2019/12/23 11:58:58;;;;;;;1.25;1.08;;;;;;;20.46;43.51;99860.17;;;;-54
2019/12/23 12:01:58;;;;;;;1.45;1.03;;;;;;;20.45;43.52;99856.39;;;;-54
2019/12/23 12:04:58;;;;;;;1.33;1.10;;;;;;;20.48;43.50;99864.77;;;;-55
2019/12/23 12:07:58;;;;;;;1.32;1.11;;;;;;;20.47;43.52;99867.69;;;;-54
2019/12/23 12:10:59;;;;;;;1.41;1.13;;;;;;;20.48;43.53;99869.90;;;;-54
2019/12/23 12:13:58;;;;;;;1.19;1.09;;;;;;;20.49;43.51;99874.83;;;;-54
2019/12/23 12:16:58;;;;;;;1.29;1.10;;;;;;;20.49;43.51;99875.86;;;;-54
2019/12/23 12:19:58;;;;;;;1.07;0.93;;;;;;;20.50;43.53;99882.41;;;;-54
2019/12/23 12:22:59;;;;;;;1.23;1.00;;;;;;;20.50;43.48;99889.66;;;;-54
2019/12/23 12:25:59;;;;;;;1.13;1.03;;;;;;;20.50;43.50;99885.56;;;;-54
2019/12/23 12:28:58;;;;;;;1.19;1.02;;;;;;;20.51;43.44;99893.52;;;;-54
2019/12/23 12:31:59;;;;;;;1.05;0.95;;;;;;;20.51;43.49;99894.02;;;;-54
2019/12/23 12:34:58;;;;;;;1.31;1.17;;;;;;;20.52;43.46;99899.68;;;;-55
2019/12/23 12:37:59;;;;;;;1.41;1.21;;;;;;;20.52;43.48;99907.47;;;;-55
2019/12/23 12:40:58;;;;;;;1.32;0.97;;;;;;;20.52;43.46;99912.53;;;;-54
2019/12/23 12:43:58;;;;;;;1.31;1.10;;;;;;;20.52;43.44;99911.52;;;;-54
2019/12/23 12:46:58;;;;;;;1.10;1.00;;;;;;;20.50;43.40;99920.62;;;;-54
2019/12/23 12:49:59;;;;;;;1.34;1.21;;;;;;;20.50;43.17;99922.43;;;;-54
2019/12/23 12:52:58;;;;;;;1.38;1.11;;;;;;;20.48;43.01;99924.64;;;;-55
2019/12/23 12:55:58;;;;;;;1.80;1.09;;;;;;;20.50;43.22;99931.99;;;;-55
2019/12/23 12:58:58;;;;;;;1.29;1.12;;;;;;;20.50;43.31;99936.35;;;;-54
2019/12/23 13:01:58;;;;;;;1.31;1.02;;;;;;;20.50;43.29;99937.73;;;;-54
2019/12/23 13:04:58;;;;;;;1.10;0.98;;;;;;;20.51;43.31;99945.01;;;;-55
2019/12/23 13:07:58;;;;;;;1.12;0.95;;;;;;;20.50;43.35;99947.13;;;;-54
2019/12/23 13:10:58;;;;;;;1.59;1.21;;;;;;;20.51;43.34;99946.95;;;;-55
2019/12/23 13:13:59;;;;;;;1.05;1.05;;;;;;;20.52;43.32;99958.16;;;;-54
2019/12/23 13:16:59;;;;;;;1.43;1.12;;;;;;;20.51;43.31;99959.12;;;;-55
2019/12/23 13:19:58;;;;;;;1.13;1.03;;;;;;;20.52;43.31;99968.86;;;;-54
2019/12/23 13:22:58;;;;;;;1.20;1.10;;;;;;;20.50;43.32;99964.63;;;;-55
2019/12/23 13:25:58;;;;;;;1.08;0.99;;;;;;;20.51;43.34;99972.55;;;;-55
2019/12/23 13:28:58;;;;;;;4.15;1.20;;;;;;;20.52;43.80;99975.20;;;;-51
2019/12/23 13:31:58;;;;;;;1.61;1.09;;;;;;;20.55;44.18;99982.38;;;;-52
2019/12/23 13:34:59;;;;;;;1.52;1.09;;;;;;;20.56;44.27;99982.11;;;;-52
2019/12/23 13:37:58;;;;;;;0.99;0.95;;;;;;;20.57;44.47;99985.39;;;;-53
2019/12/23 13:40:58;;;;;;;1.20;1.09;;;;;;;20.58;44.52;99993.48;;;;-51
2019/12/23 13:44:01;;;;;;;1.48;1.09;;;;;;;20.60;44.50;99996.56;;;;-51
2019/12/23 13:46:58;;;;;;;1.35;1.15;;;;;;;20.63;44.68;100004.61;;;;-53
2019/12/23 13:49:59;;;;;;;2.13;1.09;;;;;;;20.63;44.02;100005.89;;;;-53
2019/12/23 13:52:58;;;;;;;1.05;0.99;;;;;;;20.62;43.92;100011.05;;;;-53
2019/12/23 13:55:59;;;;;;;1.01;0.93;;;;;;;20.61;43.88;100016.90;;;;-53
2019/12/23 13:59:01;;;;;;;0.89;0.89;;;;;;;20.61;43.76;100020.83;;;;-53
2019/12/23 14:01:58;;;;;;;1.10;1.00;;;;;;;20.61;43.70;100030.92;;;;-53
2019/12/23 14:04:58;;;;;;;1.10;1.00;;;;;;;20.62;43.66;100035.28;;;;-53
2019/12/23 14:07:58;;;;;;;2.92;1.20;;;;;;;20.61;43.70;100037.70;;;;-52
2019/12/23 14:10:58;;;;;;;3.10;1.23;;;;;;;20.58;43.50;100045.59;;;;-50
2019/12/23 14:13:58;;;;;;;3.19;1.23;;;;;;;20.56;43.28;100046.59;;;;-49
2019/12/23 14:16:58;;;;;;;3.89;1.21;;;;;;;20.55;43.33;100047.80;;;;-53
2019/12/23 14:19:58;;;;;;;2.51;1.20;;;;;;;20.55;43.33;100053.67;;;;-51
2019/12/23 14:22:58;;;;;;;1.87;1.39;;;;;;;20.55;43.39;100056.36;;;;-52
2019/12/23 14:25:58;;;;;;;6.15;1.33;;;;;;;20.54;43.41;100062.36;;;;-54
2019/12/23 14:28:59;;;;;;;1.81;1.33;;;;;;;20.54;43.39;100062.87;;;;-55
2019/12/23 14:31:59;;;;;;;2.68;1.70;;;;;;;20.53;43.21;100067.20;;;;-51
2019/12/23 14:34:58;;;;;;;2.80;1.89;;;;;;;20.53;43.15;100073.06;;;;-51
2019/12/23 14:37:58;;;;;;;2.09;1.78;;;;;;;20.52;43.12;100080.84;;;;-57
2019/12/23 14:40:58;;;;;;;4.62;1.69;;;;;;;20.56;43.22;100086.28;;;;-52
2019/12/23 14:43:58;;;;;;;1.94;1.49;;;;;;;20.57;43.16;100094.11;;;;-52
2019/12/23 14:46:59;;;;;;;3.45;1.41;;;;;;;20.58;43.20;100101.25;;;;-51
2019/12/23 14:49:58;;;;;;;3.18;1.68;;;;;;;20.57;43.17;100103.17;;;;-51
2019/12/23 14:52:58;;;;;;;4.50;1.49;;;;;;;20.58;43.18;100108.23;;;;-51
2019/12/23 14:55:58;;;;;;;1.55;1.43;;;;;;;20.58;43.19;100116.05;;;;-52
2019/12/23 14:58:58;;;;;;;2.23;1.35;;;;;;;20.59;43.19;100124.27;;;;-51
2019/12/23 15:01:58;;;;;;;2.21;1.38;;;;;;;20.58;43.19;100123.94;;;;-51
2019/12/23 15:04:58;;;;;;;3.72;1.51;;;;;;;20.58;43.20;100129.27;;;;-52
2019/12/23 15:07:58;;;;;;;2.83;1.37;;;;;;;20.59;43.53;100135.34;;;;-52
2019/12/23 15:10:58;;;;;;;2.92;1.31;;;;;;;20.60;43.57;100133.97;;;;-52
2019/12/23 15:13:58;;;;;;;5.10;1.59;;;;;;;20.60;43.31;100141.63;;;;-52
2019/12/23 15:16:59;;;;;;;4.01;1.55;;;;;;;20.59;43.44;100147.12;;;;-57
2019/12/23 15:19:59;;;;;;;3.45;1.53;;;;;;;20.60;43.70;100149.84;;;;-50
2019/12/23 15:22:58;;;;;;;3.16;1.50;;;;;;;20.62;43.73;100150.59;;;;-52
2019/12/23 15:25:58;;;;;;;3.98;1.60;;;;;;;20.63;43.81;100156.13;;;;-49
2019/12/23 15:28:59;;;;;;;1.77;1.37;;;;;;;20.66;43.83;100161.59;;;;-48
2019/12/23 15:31:58;;;;;;;1.53;1.30;;;;;;;20.66;43.89;100166.39;;;;-55
2019/12/23 15:34:59;;;;;;;2.93;1.50;;;;;;;20.68;44.08;100171.23;;;;-51
2019/12/23 15:37:59;;;;;;;5.45;1.60;;;;;;;20.71;44.15;100174.52;;;;-51
2019/12/23 15:40:58;;;;;;;6.25;1.55;;;;;;;20.71;44.10;100177.88;;;;-51
2019/12/23 15:43:58;;;;;;;8.73;1.79;;;;;;;20.67;43.95;100189.42;;;;-50
2019/12/23 15:46:58;;;;;;;9.09;1.80;;;;;;;20.71;44.17;100196.84;;;;-51
2019/12/23 15:49:58;;;;;;;5.53;1.79;;;;;;;20.70;43.71;100200.27;;;;-52
2019/12/23 15:52:58;;;;;;;3.91;1.71;;;;;;;20.68;43.53;100205.47;;;;-52
2019/12/23 15:55:58;;;;;;;6.76;1.83;;;;;;;20.68;43.43;100210.94;;;;-52
2019/12/23 15:58:59;;;;;;;4.77;1.71;;;;;;;20.69;43.47;100220.03;;;;-52
2019/12/23 16:01:58;;;;;;;4.55;1.75;;;;;;;20.68;43.46;100223.75;;;;-52
2019/12/23 16:04:58;;;;;;;2.37;1.40;;;;;;;20.69;43.47;100228.66;;;;-52
2019/12/23 16:07:58;;;;;;;6.12;1.68;;;;;;;20.69;43.41;100236.31;;;;-52
2019/12/23 16:10:58;;;;;;;2.60;1.54;;;;;;;20.69;43.39;100245.20;;;;-51
2019/12/23 16:13:58;;;;;;;3.16;1.47;;;;;;;20.70;43.38;100244.23;;;;-52
2019/12/23 16:16:58;;;;;;;2.73;1.57;;;;;;;20.70;43.36;100241.05;;;;-52
2019/12/23 16:19:58;;;;;;;2.01;1.30;;;;;;;20.69;43.34;100247.55;;;;-52
2019/12/23 16:22:58;;;;;;;2.36;1.34;;;;;;;20.69;43.38;100251.48;;;;-52
2019/12/23 16:25:58;;;;;;;1.48;1.34;;;;;;;20.71;43.30;100260.95;;;;-51
2019/12/23 16:28:58;;;;;;;4.46;1.52;;;;;;;20.70;43.31;100267.05;;;;-59
2019/12/23 16:31:58;;;;;;;3.25;1.57;;;;;;;20.71;43.31;100271.79;;;;-59
2019/12/23 16:34:58;;;;;;;2.40;1.40;;;;;;;20.72;43.28;100273.41;;;;-59
2019/12/23 16:37:58;;;;;;;2.64;1.58;;;;;;;20.73;43.25;100279.88;;;;-59
2019/12/23 16:40:59;;;;;;;2.34;1.50;;;;;;;20.73;43.26;100287.87;;;;-52
2019/12/23 16:43:58;;;;;;;2.63;1.44;;;;;;;20.72;43.24;100298.41;;;;-52
2019/12/23 16:46:58;;;;;;;3.59;1.45;;;;;;;20.73;43.25;100302.81;;;;-51
2019/12/23 16:49:58;;;;;;;1.59;1.43;;;;;;;20.72;43.21;100307.23;;;;-52
2019/12/23 16:52:58;;;;;;;2.02;1.33;;;;;;;20.69;43.34;100314.06;;;;-51